首页
METAR-TAF:

METAR-TAF

机场 :

Fort Nelson, 不列颠哥伦比亚, 加拿大

纬度: 58-50N, 经度: 122-35W, 海拔: 382米

当前天气观测

该预报发布于49分钟前的00:00 UTC
风速2节,风向多变
温度 -15°C
湿度 85%
气压 1015 hPa
能見度: 48.3公里
多云层高于7400英尺

METAR: CYYE 080000Z VRB02KT 30SM BKN074 M15/M17 A2997 RMK AC5 SLP190

时间: 16:49 (00:49 UTC)

预报

该预报发布于11分钟前的00:38 UTC
预报有效从08日的 01点(UTC)到 08日的 13点(UTC)
风速3节,风向多变
能見度: 10公里
少量云层高于2000英尺
散云层高于4000英尺
阴天层高于8000英尺
短暂存在
从 08日的 01点(UTC)到 08日的 13点(UTC)
能見度: 8.0公里
散云层高于2000英尺
阴天层高于4000英尺
小雪

TAF: CYYE 080038Z 0801/0813 VRB03KT P6SM FEW020 SCT040 OVC080 TEMPO 0801/0813 5SM -SN SCT020 OVC040 RMK NXT FCST BY 080700Z

超过4000个机场的气象观测和天气预报(METAR&TAF报告)。

可查询的气象台以黄色和红色小点在地图上表示。

将鼠标移到小点上方,可查看气象台名称。

然后点击查看天气观测和预报。

如需切换地图:点击带黑十字的绿色按钮放大地图;点击带横线的绿色按钮缩小地图;或者点击绿色箭头查看邻近地区的地图。


METAR-TAF: